AirNav   Air Wisconsin pilot careers
 
 1510 users online  

2R1 Le Maire Memorial Airport
Jeanerette, Louisiana, USA

GOING TO JEANERETTE?


FAA INFORMATION EFFECTIVE 04 JANUARY 2018

Location

FAA Identifier: 2R1
Lat/Long: 29-53-56.6500N / 091-39-57.6000W
29-53.944167N / 091-39.960000W
29.8990694 / -91.6660000
(estimated)
Elevation: 14 ft. / 4 m (estimated)
Variation: 04E (1985)
From city: 1 mile S of JEANERETTE, LA
Time zone: UTC -6 (UTC -5 during Daylight Saving Time)
Zip code: 70544

Airport Operations

Airport use: Open to the public
Activation date: 10/1947
Control tower: no
ARTCC: HOUSTON CENTER
FSS: DE RIDDER FLIGHT SERVICE STATION
NOTAMs facility: DRI (NOTAM-D service available)
Attendance: UNATNDD
FOR ARPT ATTENDANT CALL 337-365-7202.
Wind indicator: lighted
Segmented circle: no
Lights: SS-SR. MIRL RY 04/22 & REIL RYS 04 & 22 PRESET LOW INTST SS-SR; TO INCR INTST ACTVT -122.90.
Beacon: white-green (lighted land airport)
Operates sunset to sunrise.

Airport Communications

CTAF: 122.9
UNICOM: 122.95
WX ASOS at ARA (14 nm NW): 133.325 (337-365-0128)

Nearby radio navigation aids

VOR radial/distance  VOR name  Freq  Var
LFTr133/24.5LAFAYETTE VORTAC109.8003E
LLAr065/39.5WHITE LAKE VOR/DME110.4004E

 
NDB name  Hdg/Dist  Freq  Var  ID
ACADI108/10.826900EAR .- .-.
ABBEVILLE110/25.723002EBNZ -... -. --..

Airport Services

Fuel available: 100LL
FUEL AVBL 24 HRS SELF SERVICE WITH CREDIT CARD.
Parking: hangars and tiedowns
Airframe service: NONE
Powerplant service: NONE
Bottled oxygen: NONE
Bulk oxygen: NONE

Runway Information

Runway 4/22

Dimensions: 3000 x 75 ft. / 914 x 23 m
Surface: asphalt, in fair condition
Weight bearing capacity: 
Single wheel: 6.0
Runway edge lights: medium intensity
RUNWAY 4  RUNWAY 22
Latitude: 29-53.746667N29-54.141667N
Longitude: 091-40.131667W091-39.788333W
Traffic pattern: leftleft
Runway heading: 033 magnetic, 037 true213 magnetic, 217 true
Displaced threshold: no603 ft.
Markings: nonprecision, in fair conditionnonprecision, in fair condition
Visual slope indicator: 2-light PAPI on left (4.50 degrees glide path)2-light PAPI on left (3.75 degrees glide path)
Runway end identifier lights: yesyes
Obstructions: 58 ft. trees, 861 ft. from runway, 164 ft. right of centerline, 11:1 slope to clear68 ft. trees, 607 ft. from runway, 109 ft. left of centerline, 5:1 slope to clear
APCH SLOPE 17:1 TO DSPLCD THLD.

Airport Ownership and Management from official FAA records

Ownership: Publicly-owned
Owner: IBERIA PARISH AIRPORT AUTHORITY
1404 HANGAR DR.
NEW IBERIA, LA 70560
Phone 337-365-7202
Manager: JASON DEVILLIER
1404 HANGAR DR.
NEW IBERIA, LA 70560
Phone 337-365-7202

Airport Operational Statistics

Aircraft based on the field: 14
Single engine airplanes: 14
    
Aircraft operations: avg 37/day *
59% local general aviation
41% transient general aviation
* for 12-month period ending 03 May 2017

Instrument Procedures

There are no published instrument procedures at 2R1.

Some nearby airports with instrument procedures:

KARA - Acadiana Regional Airport (14 nm NW)
KPTN - Harry P Williams Memorial Airport (20 nm SE)
KIYA - Abbeville Chris Crusta Memorial Airport (22 nm W)
KLFT - Lafayette Regional Airport/Paul Fournet Field (25 nm NW)
KREG - Louisiana Regional Airport (41 nm NE)
 
Loc | Ops | Rwys | IFR | FBO | Links
Com | Nav | Svcs | Stats | Notes


 
Area around 2R1 (Le Maire Memorial Airport)
 
Road maps at: MapQuest Bing Google
 
Aerial photo
WARNING: Photo may not be current or correct
Aerial photo of 2R1 (Le Maire Memorial Airport)
Photo courtesy of Earthcrawl Photography www.earthcrawl.com
Taken early August 2006

Do you have a better or more recent aerial photo of Le Maire Memorial Airport that you would like to share? If so, please send us your photo.

 
Sectional chart

 
Airport distance calculator
Flying to Le Maire Memorial Airport? Find the distance to fly.

From to 2R1

Sunrise and sunset
Times for 18-Jan-2018
 Local
(UTC-6)
 Zulu
(UTC)
Morning civil twilight06:3812:38
Sunrise07:0413:04
Sunset17:3123:31
Evening civil twilight17:5623:56

Current date and time
Zulu (UTC)  18-Jan-2018 18:07:09
Local (UTC-6)  18-Jan-2018 12:07:09
 
METAR
KARA 
14nm NW 
181753Z VRB06KT 10SM CLR 02/M09 A3057 RMK AO2 SLP350 T00221089 10028 21061 58012
KP92 
21nm S 
181753Z AUTO VRB03KT 03/M09 A3054 RMK AO1 SLP341 T00331094 10033 21056 58012 $
KPTN 
21nm SE 
181756Z AUTO 06006KT 10SM CLR 02/M07 A3056 RMK AO2 SLP349 T00221067 10022 21056 58013 FZRANO
K0R3 
22nm W 
118.875
No observation available
KIYA 
22nm W 
181755Z AUTO 00000KT 10SM CLR 02/M07 A3057 RMK AO2 T00191074 10021 21070
KLFT 
25nm NW 
181753Z VRB03KT 10SM CLR 03/M07 A3056 RMK AO2 SLP349 T00281072 10028 21083 58013 $
TAF
KARA 
14nm NW 
181720Z 1818/1918 05008KT P6SM SKC FM190300 VRB05KT P6SM BKN060
NOTAMs
Click for the latest NOTAMs
NOTAMs are issued by the DoD/FAA and will open in a separate window not controlled by AirNav.

 

 
 

FBO, Fuel Providers, and Aircraft Ground Support

  
 Business Name 
 
 Contact 
 
 Services / Description 
 
Fuel Prices
 
Comments
  
Iberia Parish Airport Commission 337-365-7202 Aviation fuel

More info about Iberia Parish Airport Commission
independent
100LL
SS $5.00 
 Updated 10-Jan-2018
 
   1 read write
SS=Self service
Update Fuel Prices
 

Would you like to see your business listed on this page?

 If your business provides an interesting product or service to pilots, flight crews, aircraft, or users of the Le Maire Memorial Airport, you should consider listing it here.  To start the listing process, click on the button below
 
Add a business
 

Other Pages about Le Maire Memorial Airport

www.flyiberiaparish.com/...
 
Update a link
 
Copyright © AirNav, LLC. All rights reserved. Privacy Policy  Contact